Time;durP1;ratioP1;P1;durP2;ratioP2;P2;SDS_P1;SDS_P2;PMS_P1;PMS_P2;Temp;Humidity;BMP_temperature;BMP_pressure;BME280_temperature;BME280_humidity;BME280_pressure;Samples;Min_cycle;Max_cycle;Signal;HPM_P1;HPM_P2
2023/04/03 00:01:11;;;;;;;;;;;;;;;26.82;40.83;94454.69;4930899;29;9239;-56
2023/04/03 00:03:41;;;;;;;;;;;;;;;26.80;41.11;94454.44;4913995;29;7288;-55
2023/04/03 00:06:40;;;;;;;;;;;;;;;26.83;41.32;94453.44;4916719;29;9249;-55
2023/04/03 00:09:08;;;;;;;;;;;;;;;26.83;40.82;94456.19;4881057;29;6958;-55
2023/04/03 00:12:13;;;;;;;;;;;;;;;26.83;41.24;94456.19;4892056;29;7031;-55
2023/04/03 00:14:45;;;;;;;;;;;;;;;26.83;40.94;94451.41;4854618;29;7355;-55
2023/04/03 00:17:12;;;;;;;;;;;;;;;26.84;40.99;94457.66;4854723;29;9211;-55
2023/04/03 00:19:49;;;;;;;;;;;;;;;26.81;41.38;94447.69;4876310;29;7358;-55
2023/04/03 00:22:26;;;;;;;;;;;;;;;26.83;41.13;94456.94;4855905;29;7066;-55
2023/04/03 00:25:17;;;;;;;;;;;;;;;26.85;41.00;94461.94;5066231;28;7175;-55
2023/04/03 00:28:15;;;;;;;;;;;;;;;26.85;41.13;94456.41;5059727;28;6984;-54
2023/04/03 00:31:22;;;;;;;;;;;;;;;26.84;40.91;94461.19;5003726;28;8159;-54
2023/04/03 00:34:21;;;;;;;;;;;;;;;26.84;41.05;94457.66;5006214;28;9019;-55
2023/04/03 00:36:51;;;;;;;;;;;;;;;26.84;40.77;94458.41;5005725;28;9234;-54
2023/04/03 00:39:57;;;;;;;;;;;;;;;26.84;40.96;94460.41;5005671;28;9815;-55
2023/04/03 00:43:00;;;;;;;;;;;;;;;26.84;40.95;94463.19;4913155;29;9235;-54
2023/04/03 00:45:39;;;;;;;;;;;;;;;26.81;41.33;94458.72;4874617;29;7433;-55
2023/04/03 00:48:16;;;;;;;;;;;;;;;26.81;40.93;94458.72;4864113;29;7343;-55
2023/04/03 00:50:54;;;;;;;;;;;;;;;26.83;41.63;94456.19;4880173;29;9156;-54
2023/04/03 00:54:08;;;;;;;;;;;;;;;26.85;41.03;94453.66;4878116;29;7254;-54
2023/04/03 00:56:40;;;;;;;;;;;;;;;26.84;40.61;94452.91;4866803;29;9490;-55
2023/04/03 00:59:42;;;;;;;;;;;;;;;26.84;40.63;94454.91;4880476;29;9051;-54
2023/04/03 01:02:37;;;;;;;;;;;;;;;26.82;40.59;94460.19;4841071;29;7350;-55
2023/04/03 01:05:27;;;;;;;;;;;;;;;26.81;40.99;94447.69;5066800;28;6673;-54
2023/04/03 01:08:26;;;;;;;;;;;;;;;26.85;41.13;94461.94;5038835;28;6858;-55
2023/04/03 01:11:01;;;;;;;;;;;;;;;26.83;40.81;94456.19;4990443;28;7020;-54
2023/04/03 01:13:37;;;;;;;;;;;;;;;26.83;41.13;94454.19;5007080;28;8718;-55
2023/04/03 01:16:05;;;;;;;;;;;;;;;26.84;40.97;94458.41;5003728;28;7105;-54
2023/04/03 01:18:48;;;;;;;;;;;;;;;26.82;40.51;94454.69;4998044;28;7364;-54
2023/04/03 01:21:43;;;;;;;;;;;;;;;26.82;40.85;94452.66;4988223;28;9704;-54
2023/04/03 01:24:47;;;;;;;;;;;;;;;26.84;41.02;94460.41;5005720;28;9263;-55
2023/04/03 01:27:17;;;;;;;;;;;;;;;26.83;41.03;94465.22;4948566;28;7263;-54
2023/04/03 01:30:03;;;;;;;;;;;;;;;26.83;40.35;94458.94;4961536;28;9053;-54
2023/04/03 01:36:05;;;;;;;;;;;;;;;26.81;40.99;94467.00;4957543;28;7278;-54
2023/04/03 01:39:11;;;;;;;;;;;;;;;26.83;40.83;94472.75;4944601;28;7125;-54
2023/04/03 01:41:38;;;;;;;;;;;;;;;26.82;40.86;94471.22;4906858;29;9517;-54
2023/04/03 01:44:42;;;;;;;;;;;;;;;26.82;40.79;94474.00;4909242;29;8785;-54
2023/04/03 01:47:45;;;;;;;;;;;;;;;26.80;40.61;94476.53;4843731;29;9306;-54
2023/04/03 01:50:49;;;;;;;;;;;;;;;26.81;41.06;94472.50;4818869;29;9677;-55
2023/04/03 01:53:26;;;;;;;;;;;;;;;26.82;40.88;94474.00;4837951;29;7040;-55
2023/04/03 01:56:10;;;;;;;;;;;;;;;26.80;41.08;94477.28;4836062;29;9232;-54
2023/04/03 01:58:45;;;;;;;;;;;;;;;26.78;41.17;94473.53;4860505;29;9450;-54
2023/04/03 02:01:27;;;;;;;;;;;;;;;26.78;40.89;94473.53;4886068;29;7011;-55
2023/04/03 02:04:12;;;;;;;;;;;;;;;26.78;40.60;94476.28;4884032;29;7496;-54
2023/04/03 02:06:41;;;;;;;;;;;;;;;26.77;40.68;94466.53;4888110;29;7020;-54
2023/04/03 02:09:09;;;;;;;;;;;;;;;26.77;40.94;94474.81;4890754;29;7290;-54
2023/04/03 02:11:43;;;;;;;;;;;;;;;26.75;41.07;94469.78;4887403;29;7307;-54
2023/04/03 02:14:23;;;;;;;;;;;;;;;26.75;40.77;94474.59;4856260;29;9172;-54
2023/04/03 02:16:49;;;;;;;;;;;;;;;26.76;40.94;94471.31;4894686;29;8128;-54
2023/04/03 02:20:03;;;;;;;;;;;;;;;26.77;40.68;94472.06;4912968;29;7116;-54
2023/04/03 02:22:41;;;;;;;;;;;;;;;26.77;40.86;94477.56;4936251;28;8908;-54
2023/04/03 02:25:18;;;;;;;;;;;;;;;26.75;40.53;94471.81;4986598;28;8522;-54
2023/04/03 02:27:54;;;;;;;;;;;;;;;26.76;41.25;94484.34;4986343;28;7814;-55
2023/04/03 02:30:36;;;;;;;;;;;;;;;26.77;40.80;94486.56;4985026;28;7213;-54
2023/04/03 02:33:04;;;;;;;;;;;;;;;26.74;41.07;94482.09;4986653;28;8601;-54
2023/04/03 02:35:52;;;;;;;;;;;;;;;26.76;40.65;94478.81;5011494;28;7369;-55
2023/04/03 02:38:19;;;;;;;;;;;;;;;26.74;40.92;94475.84;4993289;28;9000;-54
2023/04/03 02:41:13;;;;;;;;;;;;;;;26.76;41.22;94484.34;4993832;28;9282;-54
2023/04/03 02:43:57;;;;;;;;;;;;;;;26.72;40.93;94479.09;5000791;28;8409;-54
2023/04/03 02:46:53;;;;;;;;;;;;;;;26.75;40.77;94478.06;5019756;28;7116;-55
2023/04/03 02:49:19;;;;;;;;;;;;;;;26.75;41.00;94478.06;4972081;28;7457;-54
2023/04/03 02:51:54;;;;;;;;;;;;;;;26.74;40.82;94482.09;4973122;28;9717;-54
2023/04/03 02:54:28;;;;;;;;;;;;;;;26.70;41.17;94473.34;4954641;28;7425;-54
2023/04/03 02:57:22;;;;;;;;;;;;;;;26.74;40.78;94475.84;4948097;28;7037;-54
2023/04/03 02:59:54;;;;;;;;;;;;;;;26.73;40.70;94483.34;5010533;28;9333;-54
2023/04/03 03:02:39;;;;;;;;;;;;;;;26.73;40.68;94475.09;4994123;28;9301;-54
2023/04/03 03:05:17;;;;;;;;;;;;;;;26.74;40.67;94473.06;5006006;28;9138;-54
2023/04/03 03:07:44;;;;;;;;;;;;;;;26.74;40.70;94470.31;5006543;28;6999;-54
2023/04/03 03:10:23;;;;;;;;;;;;;;;26.73;40.82;94475.09;5013643;28;8796;-54
2023/04/03 03:13:02;;;;;;;;;;;;;;;26.72;40.86;94478.34;4994533;28;8430;-54
2023/04/03 03:15:28;;;;;;;;;;;;;;;26.73;41.03;94480.59;4995414;28;7053;-54
2023/04/03 03:18:05;;;;;;;;;;;;;;;26.72;40.71;94475.56;4989959;28;9773;-54
2023/04/03 03:20:33;;;;;;;;;;;;;;;26.72;40.29;94475.56;4995961;28;8925;-54
2023/04/03 03:22:59;;;;;;;;;;;;;;;26.71;41.16;94474.81;4991516;28;7113;-54
2023/04/03 03:25:56;;;;;;;;;;;;;;;26.73;40.56;94474.34;5005436;28;7240;-54
2023/04/03 03:28:23;;;;;;;;;;;;;;;26.72;40.75;94472.81;5001170;28;7258;-54
2023/04/03 03:30:58;;;;;;;;;;;;;;;26.72;40.83;94478.34;4993959;28;9431;-54
2023/04/03 03:33:35;;;;;;;;;;;;;;;26.69;40.97;94474.59;5006975;28;7269;-54
2023/04/03 03:36:13;;;;;;;;;;;;;;;26.68;40.68;94472.34;5009136;28;9138;-54
2023/04/03 03:38:50;;;;;;;;;;;;;;;26.70;40.94;94472.59;5009324;28;7296;-54
2023/04/03 03:41:18;;;;;;;;;;;;;;;26.69;40.75;94463.56;5009771;28;7675;-55
2023/04/03 03:43:46;;;;;;;;;;;;;;;26.71;40.82;94476.81;5009387;28;7074;-54
2023/04/03 03:46:17;;;;;;;;;;;;;;;26.70;41.24;94478.09;5013882;28;8252;-54
2023/04/03 03:48:43;;;;;;;;;;;;;;;26.70;40.59;94478.09;4978618;28;7280;-54
2023/04/03 03:51:16;;;;;;;;;;;;;;;26.69;40.79;94484.88;4985472;28;9144;-54
2023/04/03 03:54:19;;;;;;;;;;;;;;;26.70;40.96;94489.16;5005160;28;8839;-54
2023/04/03 03:57:32;;;;;;;;;;;;;;;26.70;41.01;94486.38;4994892;28;7051;-54
2023/04/03 04:00:30;;;;;;;;;;;;;;;26.68;40.54;94488.91;4941107;28;7258;-54
2023/04/03 04:02:57;;;;;;;;;;;;;;;26.67;40.66;94481.88;4899415;29;9022;-54
2023/04/03 04:05:23;;;;;;;;;;;;;;;26.67;40.78;94482.63;4952591;28;9138;-54
2023/04/03 04:07:51;;;;;;;;;;;;;;;26.66;40.52;94486.69;4950089;28;7244;-54
2023/04/03 04:10:17;;;;;;;;;;;;;;;26.70;40.54;94494.66;4965942;28;7054;-54
2023/04/03 04:12:43;;;;;;;;;;;;;;;26.69;40.89;94495.91;4950921;28;7280;-54
2023/04/03 04:15:09;;;;;;;;;;;;;;;26.69;40.70;94496.66;4953415;28;7006;-54
2023/04/03 04:17:36;;;;;;;;;;;;;;;26.69;40.97;94498.66;4971806;28;7253;-54
2023/04/03 04:20:18;;;;;;;;;;;;;;;26.71;40.54;94504.41;4968227;28;7946;-54
2023/04/03 04:22:47;;;;;;;;;;;;;;;26.66;41.00;94499.72;4969095;28;9448;-54
2023/04/03 04:25:14;;;;;;;;;;;;;;;26.66;40.49;94500.47;4956035;28;9208;-54
2023/04/03 04:28:04;;;;;;;;;;;;;;;26.67;40.39;94499.19;4954508;28;9503;-54
2023/04/03 04:30:57;;;;;;;;;;;;;;;26.67;40.81;94498.44;4950596;28;7288;-54
2023/04/03 04:33:39;;;;;;;;;;;;;;;26.64;40.96;94500.22;4972410;28;9193;-54
2023/04/03 04:36:05;;;;;;;;;;;;;;;26.64;41.38;94493.97;4972141;28;7161;-54
2023/04/03 04:38:45;;;;;;;;;;;;;;;26.63;40.93;94493.22;5009177;28;7990;-54
2023/04/03 04:41:12;;;;;;;;;;;;;;;26.64;40.55;94502.97;5037619;28;9136;-54
2023/04/03 04:43:43;;;;;;;;;;;;;;;26.63;40.60;94497.97;5029401;28;7277;-54
2023/04/03 04:46:13;;;;;;;;;;;;;;;26.63;40.43;94489.69;5024288;28;7158;-54
2023/04/03 04:48:42;;;;;;;;;;;;;;;26.62;40.77;94496.50;5031351;28;9058;-55
2023/04/03 04:51:08;;;;;;;;;;;;;;;26.62;40.22;94502.75;5027647;28;7287;-54
2023/04/03 04:54:00;;;;;;;;;;;;;;;26.63;41.08;94507.00;5021377;28;7279;-54
2023/04/03 04:56:28;;;;;;;;;;;;;;;26.62;41.23;94502.00;5024217;28;9073;-54
2023/04/03 04:59:02;;;;;;;;;;;;;;;26.61;41.42;94495.75;5031581;28;8791;-54
2023/04/03 05:01:28;;;;;;;;;;;;;;;26.67;41.82;94498.44;5019361;28;7210;-54
2023/04/03 05:03:54;;;;;;;;;;;;;;;26.64;41.58;94493.97;5019716;28;6895;-54
2023/04/03 05:06:23;;;;;;;;;;;;;;;26.69;40.97;94499.44;5029780;28;7491;-54
2023/04/03 05:08:51;;;;;;;;;;;;;;;26.67;41.36;94495.69;5022277;28;7317;-55
2023/04/03 05:11:16;;;;;;;;;;;;;;;26.68;41.21;94502.72;5027787;28;7044;-54
2023/04/03 05:13:47;;;;;;;;;;;;;;;26.65;41.63;94504.47;5038368;28;7124;-54
2023/04/03 05:16:29;;;;;;;;;;;;;;;26.67;41.42;94506.72;5039204;28;9264;-55
2023/04/03 05:19:04;;;;;;;;;;;;;;;26.66;41.37;94514.28;5037764;28;9006;-54
2023/04/03 05:21:32;;;;;;;;;;;;;;;26.67;41.27;94515.00;5027790;28;9080;-54
2023/04/03 05:24:02;;;;;;;;;;;;;;;26.66;41.64;94519.03;5018816;28;8769;-54
2023/04/03 05:26:55;;;;;;;;;;;;;;;26.63;41.70;94517.28;5052735;28;8956;-54
2023/04/03 05:29:55;;;;;;;;;;;;;;;26.60;41.73;94519.06;4984939;28;7200;-54
2023/04/03 05:32:27;;;;;;;;;;;;;;;26.61;42.04;94519.81;4962024;28;8925;-54
2023/04/03 05:34:58;;;;;;;;;;;;;;;26.64;41.83;94518.81;4965982;28;7848;-54
2023/04/03 05:37:54;;;;;;;;;;;;;;;26.66;41.61;94528.06;4951920;28;7007;-54
2023/04/03 05:40:21;;;;;;;;;;;;;;;26.64;40.97;94527.06;4912432;29;7045;-55
2023/04/03 05:43:16;;;;;;;;;;;;;;;26.67;41.42;94534.31;4910522;29;8896;-55
2023/04/03 05:45:54;;;;;;;;;;;;;;;26.69;40.89;94534.53;4873390;29;9122;-54
2023/04/03 05:48:45;;;;;;;;;;;;;;;26.69;40.47;94540.06;4864214;29;7368;-54
2023/04/03 05:51:37;;;;;;;;;;;;;;;26.64;40.49;94538.84;4874121;29;9087;-54
2023/04/03 05:54:17;;;;;;;;;;;;;;;26.59;40.47;94534.13;4861529;29;7054;-54
2023/04/03 05:57:00;;;;;;;;;;;;;;;26.56;40.99;94539.91;4855787;29;9157;-54
2023/04/03 05:59:26;;;;;;;;;;;;;;;26.60;40.52;94543.16;4861692;29;9079;-54
2023/04/03 06:01:52;;;;;;;;;;;;;;;26.59;41.10;94550.69;4846592;29;7061;-54
2023/04/03 06:04:19;;;;;;;;;;;;;;;26.60;40.73;94548.69;4881205;29;7296;-54
2023/04/03 06:06:55;;;;;;;;;;;;;;;26.56;41.29;94548.94;4879878;29;9147;-54
2023/04/03 06:09:25;;;;;;;;;;;;;;;26.60;41.31;94560.44;4898901;29;7709;-55
2023/04/03 06:12:22;;;;;;;;;;;;;;;26.62;41.09;94557.19;4917588;29;9401;-54
2023/04/03 06:14:48;;;;;;;;;;;;;;;26.62;40.90;94552.41;4915362;29;8730;-54
2023/04/03 06:17:17;;;;;;;;;;;;;;;26.62;41.03;94563.44;4956613;28;7093;-54
2023/04/03 06:19:52;;;;;;;;;;;;;;;26.63;41.53;94567.72;4970721;28;7627;-54
2023/04/03 06:22:34;;;;;;;;;;;;;;;26.64;41.35;94566.44;4993087;28;7043;-55
2023/04/03 06:25:35;;;;;;;;;;;;;;;26.64;40.93;94571.94;5025407;28;9115;-54
2023/04/03 06:28:12;;;;;;;;;;;;;;;26.65;40.92;94564.44;4994310;28;7571;-54
2023/04/03 06:30:50;;;;;;;;;;;;;;;26.66;41.39;94572.22;4991530;28;8020;-54
2023/04/03 06:33:26;;;;;;;;;;;;;;;26.64;41.13;94571.94;5012644;28;7419;-54
2023/04/03 06:36:04;;;;;;;;;;;;;;;26.63;40.68;94566.94;4989575;28;7254;-54
2023/04/03 06:38:40;;;;;;;;;;;;;;;26.59;41.44;94566.47;5010898;28;7237;-55
2023/04/03 06:41:26;;;;;;;;;;;;;;;26.60;41.75;94571.47;4987711;28;7622;-54
2023/04/03 06:44:23;;;;;;;;;;;;;;;26.61;41.21;94561.97;5016297;28;7868;-54
2023/04/03 06:47:01;;;;;;;;;;;;;;;26.61;41.21;94561.97;4967863;28;9079;-54
2023/04/03 06:49:52;;;;;;;;;;;;;;;26.60;41.24;94571.47;4971815;28;6990;-54
2023/04/03 06:52:28;;;;;;;;;;;;;;;26.61;41.14;94575.00;4954960;28;7660;-54
2023/04/03 06:55:08;;;;;;;;;;;;;;;26.60;41.48;94570.75;4964948;28;7277;-54
2023/04/03 06:57:45;;;;;;;;;;;;;;;26.60;41.41;94576.28;4966255;28;7031;-54
2023/04/03 07:00:14;;;;;;;;;;;;;;;26.59;41.73;94578.28;4971670;28;8717;-54
2023/04/03 07:03:13;;;;;;;;;;;;;;;26.59;41.70;94575.50;4979412;28;9456;-54
2023/04/03 07:05:44;;;;;;;;;;;;;;;26.58;41.11;94565.72;4986777;28;7280;-54
2023/04/03 07:08:12;;;;;;;;;;;;;;;26.60;41.52;94571.47;4982019;28;7172;-54
2023/04/03 07:10:40;;;;;;;;;;;;;;;26.60;41.34;94573.50;4990342;28;9094;-54
2023/04/03 07:13:44;;;;;;;;;;;;;;;26.61;41.37;94572.22;4970803;28;8806;-54
2023/04/03 07:16:40;;;;;;;;;;;;;;;26.60;41.18;94581.78;4969443;28;7277;-55
2023/04/03 07:19:24;;;;;;;;;;;;;;;26.60;41.43;94579.03;4942447;28;7254;-54
2023/04/03 07:21:50;;;;;;;;;;;;;;;26.58;40.71;94582.28;4939533;28;7263;-54
2023/04/03 07:24:50;;;;;;;;;;;;;;;26.61;41.26;94588.78;4927619;28;8042;-54
2023/04/03 07:27:17;;;;;;;;;;;;;;;26.63;41.10;94591.78;4928173;28;9487;-54
2023/04/03 07:29:58;;;;;;;;;;;;;;;26.60;41.33;94588.03;4936956;28;9004;-54
2023/04/03 07:32:29;;;;;;;;;;;;;;;26.62;41.17;94590.31;4949498;28;7297;-54
2023/04/03 07:34:56;;;;;;;;;;;;;;;26.63;41.45;94591.78;4935837;28;9446;-54
2023/04/03 07:37:34;;;;;;;;;;;;;;;26.62;41.22;94588.28;4926823;28;7347;-54
2023/04/03 07:40:26;;;;;;;;;;;;;;;26.64;40.71;94593.28;4952546;28;7479;-54
2023/04/03 07:43:09;;;;;;;;;;;;;;;26.59;41.25;94597.59;4972807;28;7392;-54
2023/04/03 07:45:35;;;;;;;;;;;;;;;26.65;41.20;94594.78;4999267;28;6856;-54
2023/04/03 07:48:22;;;;;;;;;;;;;;;26.65;40.66;94595.53;4989208;28;7212;-54
2023/04/03 07:50:50;;;;;;;;;;;;;;;26.66;41.12;94596.28;4963855;28;9783;-54
2023/04/03 07:53:30;;;;;;;;;;;;;;;26.64;40.41;94598.81;4972547;28;7741;-54
2023/04/03 07:56:17;;;;;;;;;;;;;;;26.68;40.41;94602.03;5003660;28;9050;-54
2023/04/03 07:58:45;;;;;;;;;;;;;;;26.68;40.49;94599.28;5026502;28;9113;-55
2023/04/03 08:01:27;;;;;;;;;;;;;;;26.65;40.18;94598.28;5026950;28;9028;-54
2023/04/03 08:04:13;;;;;;;;;;;;;;;26.66;40.36;94602.56;5021457;28;7195;-54
2023/04/03 08:06:56;;;;;;;;;;;;;;;26.62;40.13;94599.31;5023650;28;7379;-54
2023/04/03 08:09:22;;;;;;;;;;;;;;;26.61;40.37;94589.53;5024776;28;7493;-54
2023/04/03 08:11:59;;;;;;;;;;;;;;;26.64;40.43;94596.78;5020152;28;7865;-54
2023/04/03 08:14:34;;;;;;;;;;;;;;;26.62;40.12;94599.31;5026894;28;7641;-54
2023/04/03 08:17:11;;;;;;;;;;;;;;;26.62;40.15;94595.81;5038053;28;7463;-54
2023/04/03 08:19:47;;;;;;;;;;;;;;;26.62;40.39;94595.81;5046734;28;7377;-54
2023/04/03 08:22:46;;;;;;;;;;;;;;;26.61;40.01;94595.06;5017152;28;7228;-54
2023/04/03 08:25:33;;;;;;;;;;;;;;;26.61;40.66;94597.06;5051952;28;9011;-54
2023/04/03 08:28:04;;;;;;;;;;;;;;;26.58;40.19;94587.81;5026342;28;7320;-54
2023/04/03 08:30:33;;;;;;;;;;;;;;;26.58;40.45;94589.81;5026529;28;9296;-54
2023/04/03 08:33:03;;;;;;;;;;;;;;;26.60;40.80;94595.59;5019062;28;8902;-54
2023/04/03 08:35:29;;;;;;;;;;;;;;;26.59;40.28;94596.84;5019185;28;7455;-54
2023/04/03 08:38:00;;;;;;;;;;;;;;;26.60;40.24;94592.81;5024431;28;7158;-54
2023/04/03 08:40:32;;;;;;;;;;;;;;;26.59;40.61;94596.84;5029767;28;7386;-54
2023/04/03 08:47:15;;;;;;;;;;;;;;;26.58;40.84;94595.31;5021764;28;7125;-54
2023/04/03 08:49:57;;;;;;;;;;;;;;;26.58;40.07;94603.59;5028921;28;7514;-54
2023/04/03 08:52:36;;;;;;;;;;;;;;;26.54;40.90;94601.13;5052384;28;7058;-54
2023/04/03 08:55:18;;;;;;;;;;;;;;;26.56;40.17;94601.34;5017520;28;8658;-54
2023/04/03 08:57:48;;;;;;;;;;;;;;;26.57;40.93;94608.38;5045989;28;9209;-54
2023/04/03 09:00:22;;;;;;;;;;;;;;;26.57;40.10;94611.16;5025927;28;7005;-55
2023/04/03 09:02:58;;;;;;;;;;;;;;;26.57;40.81;94600.09;5026529;28;9142;-54
2023/04/03 09:06:13;;;;;;;;;;;;;;;26.56;40.30;94595.84;5030949;28;9073;-54
2023/04/03 09:09:08;;;;;;;;;;;;;;;26.57;40.74;94600.09;5020758;28;8710;-54
2023/04/03 09:12:09;;;;;;;;;;;;;;;26.57;40.40;94604.88;5016197;28;9316;-54
2023/04/03 09:15:15;;;;;;;;;;;;;;;26.55;40.18;94612.91;5012737;28;7255;-54
2023/04/03 09:17:56;;;;;;;;;;;;;;;26.57;40.32;94610.38;5023563;28;7151;-54
2023/04/03 09:21:17;;;;;;;;;;;;;;;26.56;40.50;94608.88;5020813;28;9531;-54
2023/04/03 09:23:56;;;;;;;;;;;;;;;26.57;40.65;94610.38;5027284;28;7894;-54
2023/04/03 09:27:00;;;;;;;;;;;;;;;26.59;40.70;94613.38;5027486;28;7463;-54
2023/04/03 09:29:28;;;;;;;;;;;;;;;26.59;40.39;94613.38;4979620;28;9361;-54
2023/04/03 09:32:03;;;;;;;;;;;;;;;26.53;39.90;94615.44;4978360;28;7519;-54
2023/04/03 09:34:49;;;;;;;;;;;;;;;26.57;40.32;94624.19;4986292;28;7315;-54
2023/04/03 09:37:42;;;;;;;;;;;;;;;26.57;40.07;94616.66;4990752;28;9045;-54
2023/04/03 09:40:34;;;;;;;;;;;;;;;26.56;40.16;94620.66;4994799;28;7043;-54
2023/04/03 09:43:24;;;;;;;;;;;;;;;26.57;39.93;94618.66;4976551;28;7831;-54
2023/04/03 09:45:54;;;;;;;;;;;;;;;26.55;40.28;94619.19;4997791;28;7409;-54
2023/04/03 09:48:24;;;;;;;;;;;;;;;26.58;40.39;94620.16;4992877;28;7188;-54
2023/04/03 09:50:55;;;;;;;;;;;;;;;26.56;40.25;94623.44;4969102;28;9033;-54
2023/04/03 09:53:31;;;;;;;;;;;;;;;26.55;40.43;94618.44;4987740;28;7253;-57
2023/04/03 09:56:34;;;;;;;;;;;;;;;26.56;40.38;94617.16;4994085;28;7043;-56
2023/04/03 09:59:43;;;;;;;;;;;;;;;26.61;40.27;94617.13;4966778;28;7237;-56
2023/04/03 10:02:42;;;;;;;;;;;;;;;26.62;40.12;94612.38;4945443;28;9080;-56
2023/04/03 10:05:37;;;;;;;;;;;;;;;26.62;40.21;94615.84;4965858;28;8693;-56
2023/04/03 10:08:29;;;;;;;;;;;;;;;26.61;39.75;94614.38;4975371;28;9676;-56
2023/04/03 10:11:16;;;;;;;;;;;;;;;26.61;40.36;94617.13;4958571;28;7039;-56
2023/04/03 10:14:05;;;;;;;;;;;;;;;26.61;40.15;94627.41;4974875;28;7282;-56
2023/04/03 10:16:47;;;;;;;;;;;;;;;26.59;40.67;94614.13;4963429;28;8344;-56
2023/04/03 10:19:36;;;;;;;;;;;;;;;26.59;40.37;94614.13;4967746;28;7198;-56
2023/04/03 10:22:26;;;;;;;;;;;;;;;26.60;40.46;94631.44;4968804;28;6929;-56
2023/04/03 10:25:22;;;;;;;;;;;;;;;26.62;40.11;94617.88;4975619;28;7206;-56
2023/04/03 10:28:44;;;;;;;;;;;;;;;26.64;40.07;94621.59;4978645;28;7719;-57
2023/04/03 10:31:38;;;;;;;;;;;;;;;26.63;40.27;94614.59;4972333;28;9505;-56
2023/04/03 10:34:28;;;;;;;;;;;;;;;26.64;40.02;94618.13;4973825;28;11255;-56
2023/04/03 10:37:06;;;;;;;;;;;;;;;26.63;39.56;94608.34;5026472;28;7573;-56
2023/04/03 10:40:03;;;;;;;;;;;;;;;26.64;39.88;94610.56;5038930;28;7127;-56
2023/04/03 10:43:14;;;;;;;;;;;;;;;26.63;39.97;94608.34;5018310;28;7052;-56
2023/04/03 10:45:48;;;;;;;;;;;;;;;26.64;39.86;94607.09;5027274;28;7013;-56
2023/04/03 10:48:52;;;;;;;;;;;;;;;26.63;40.12;94605.56;5016807;28;6915;-56
2023/04/03 10:55:33;;;;;;;;;;;;;;;26.61;40.01;94603.34;4947078;28;7043;-56
2023/04/03 10:58:32;;;;;;;;;;;;;;;26.64;40.58;94604.31;4950983;28;7236;-56
2023/04/03 11:01:24;;;;;;;;;;;;;;;26.62;40.36;94596.53;4932707;29;9441;-56
2023/04/03 11:03:57;;;;;;;;;;;;;;;26.62;40.00;94602.06;4949258;28;7135;-56
2023/04/03 11:06:34;;;;;;;;;;;;;;;26.65;40.15;94608.56;4940558;28;8815;-56
2023/04/03 11:09:55;;;;;;;;;;;;;;;26.64;40.05;94604.31;4931046;28;9435;-56
2023/04/03 11:12:44;;;;;;;;;;;;;;;26.62;39.93;94595.81;4970548;28;9403;-56
2023/04/03 11:15:24;;;;;;;;;;;;;;;26.63;40.22;94602.81;4954830;28;9002;-56
2023/04/03 11:18:00;;;;;;;;;;;;;;;26.64;40.14;94604.31;4971279;28;7061;-56
2023/04/03 11:20:37;;;;;;;;;;;;;;;26.63;40.03;94602.81;4954352;28;8695;-56
2023/04/03 11:23:25;;;;;;;;;;;;;;;26.61;39.88;94603.34;4955235;28;7023;-56
2023/04/03 11:26:07;;;;;;;;;;;;;;;26.63;40.23;94600.06;4953686;28;7028;-56
2023/04/03 11:28:43;;;;;;;;;;;;;;;26.64;40.25;94607.09;4957087;28;9000;-56
2023/04/03 11:31:47;;;;;;;;;;;;;;;26.63;40.14;94598.06;4989237;28;9824;-56
2023/04/03 11:34:34;;;;;;;;;;;;;;;26.63;40.48;94589.03;5010472;28;9465;-56
2023/04/03 11:37:06;;;;;;;;;;;;;;;26.63;40.29;94587.03;5003757;28;6984;-56
2023/04/03 11:39:38;;;;;;;;;;;;;;;26.65;40.17;94592.00;5016063;28;7034;-56
2023/04/03 11:42:35;;;;;;;;;;;;;;;26.64;40.77;94594.03;4995756;28;7127;-56
2023/04/03 11:45:27;;;;;;;;;;;;;;;26.65;40.67;94589.25;5024314;28;7237;-56
2023/04/03 11:48:20;;;;;;;;;;;;;;;26.67;40.26;94587.50;5011129;28;7322;-56
2023/04/03 11:50:48;;;;;;;;;;;;;;;26.64;40.88;94579.50;5017352;28;7074;-56
2023/04/03 11:53:13;;;;;;;;;;;;;;;26.67;39.98;94581.97;5056594;28;9434;-56
2023/04/03 11:55:48;;;;;;;;;;;;;;;26.69;40.33;94578.69;5027752;28;9173;-56
2023/04/03 11:58:31;;;;;;;;;;;;;;;26.68;40.18;94571.69;5030638;28;9009;-56
2023/04/03 12:05:23;;;;;;;;;;;;;;;26.71;40.64;94576.91;5015317;28;7412;-56
2023/04/03 12:08:29;;;;;;;;;;;;;;;26.71;40.64;94565.13;5021338;28;8905;-56
2023/04/03 12:11:21;;;;;;;;;;;;;;;26.71;40.55;94567.88;5011285;28;7246;-56
2023/04/03 12:13:55;;;;;;;;;;;;;;;26.70;40.50;94574.69;4995216;28;8999;-56
2023/04/03 12:16:45;;;;;;;;;;;;;;;26.68;40.31;94571.69;5011577;28;7456;-56
2023/04/03 12:19:33;;;;;;;;;;;;;;;26.69;40.51;94559.38;5007647;28;7523;-56
2023/04/03 12:22:44;;;;;;;;;;;;;;;26.70;40.41;94569.16;5011021;28;9012;-56
2023/04/03 12:26:04;;;;;;;;;;;;;;;26.71;40.30;94552.09;5011134;28;7183;-56
2023/04/03 12:29:13;;;;;;;;;;;;;;;26.70;40.77;94569.91;4925419;29;9150;-56
2023/04/03 12:32:22;;;;;;;;;;;;;;;26.70;40.23;94558.13;4917302;29;7661;-56
2023/04/03 12:35:20;;;;;;;;;;;;;;;26.70;40.66;94561.63;4927946;29;7274;-56
2023/04/03 12:38:29;;;;;;;;;;;;;;;26.70;40.35;94556.13;4917973;29;9194;-57
2023/04/03 12:41:17;;;;;;;;;;;;;;;26.73;40.13;94551.63;4923963;28;9047;-56
2023/04/03 12:44:30;;;;;;;;;;;;;;;26.73;40.60;94573.69;4936725;28;7275;-56
2023/04/03 12:47:39;;;;;;;;;;;;;;;26.73;40.30;94562.66;4908154;29;8805;-56
2023/04/03 12:50:42;;;;;;;;;;;;;;;26.72;41.23;94556.34;4915205;29;9002;-56
2023/04/03 12:53:34;;;;;;;;;;;;;;;26.71;40.48;94563.13;4903696;29;8245;-56
2023/04/03 12:56:36;;;;;;;;;;;;;;;26.72;40.53;94561.88;4900973;29;7297;-56
2023/04/03 12:59:43;;;;;;;;;;;;;;;26.73;40.07;94562.66;4893297;29;8197;-56
2023/04/03 13:02:34;;;;;;;;;;;;;;;26.73;40.67;94557.13;4906756;29;7037;-56
2023/04/03 13:05:18;;;;;;;;;;;;;;;26.72;40.54;94563.88;4912590;29;9090;-56
2023/04/03 13:08:12;;;;;;;;;;;;;;;26.74;39.73;94553.09;4953458;28;9233;-56
2023/04/03 13:10:55;;;;;;;;;;;;;;;26.74;40.45;94553.84;4991328;28;7521;-56
2023/04/03 13:13:26;;;;;;;;;;;;;;;26.75;39.84;94549.81;4974057;28;7348;-56
2023/04/03 13:16:19;;;;;;;;;;;;;;;26.74;40.27;94545.56;4988775;28;8702;-56
2023/04/03 13:19:03;;;;;;;;;;;;;;;26.76;40.66;94550.56;5017025;28;7048;-56
2023/04/03 13:21:36;;;;;;;;;;;;;;;26.74;40.47;94542.81;5021999;28;8101;-56
2023/04/03 13:24:03;;;;;;;;;;;;;;;26.74;40.00;94539.31;5015313;28;9443;-56
2023/04/03 13:26:33;;;;;;;;;;;;;;;26.74;41.19;94539.31;5018196;28;7552;-56
2023/04/03 13:29:05;;;;;;;;;;;;;;;26.75;40.44;94546.34;5020673;28;7296;-56
2023/04/03 13:31:38;;;;;;;;;;;;;;;26.73;40.68;94535.78;5022054;28;9266;-56
2023/04/03 13:34:10;;;;;;;;;;;;;;;26.74;40.74;94547.59;5024038;28;8837;-56
2023/04/03 13:37:01;;;;;;;;;;;;;;;26.73;40.17;94538.53;5025461;28;7277;-56
2023/04/03 13:39:46;;;;;;;;;;;;;;;26.74;40.32;94531.03;5009415;28;8857;-56
2023/04/03 13:42:36;;;;;;;;;;;;;;;26.74;40.56;94537.28;5021499;28;7026;-56
2023/04/03 13:45:20;;;;;;;;;;;;;;;26.75;39.75;94532.53;5020232;28;7216;-56
2023/04/03 13:47:49;;;;;;;;;;;;;;;26.76;39.65;94534.00;5023600;28;7494;-56
2023/04/03 13:50:25;;;;;;;;;;;;;;;26.74;39.96;94531.78;5039374;28;7072;-56
2023/04/03 13:53:10;;;;;;;;;;;;;;;26.74;40.16;94539.31;5025294;28;9052;-56
2023/04/03 13:56:10;;;;;;;;;;;;;;;26.73;39.91;94530.28;5021220;28;7438;-56
2023/04/03 13:58:40;;;;;;;;;;;;;;;26.72;40.01;94536.28;5024636;28;9379;-56
2023/04/03 14:01:33;;;;;;;;;;;;;;;26.70;39.78;94530.53;5047348;28;7286;-56
2023/04/03 14:04:15;;;;;;;;;;;;;;;26.69;40.20;94529.03;5030423;28;7263;-56
2023/04/03 14:06:48;;;;;;;;;;;;;;;26.69;40.27;94531.78;5023910;28;7214;-56
2023/04/03 14:09:17;;;;;;;;;;;;;;;26.71;40.08;94532.00;5017404;28;7244;-56
2023/04/03 14:11:54;;;;;;;;;;;;;;;26.73;39.93;94524.03;5018430;28;9846;-56
2023/04/03 14:14:28;;;;;;;;;;;;;;;26.70;40.17;94525.00;5016345;28;6902;-56
2023/04/03 14:17:10;;;;;;;;;;;;;;;26.71;39.51;94515.47;5019915;28;7289;-56
2023/04/03 14:19:36;;;;;;;;;;;;;;;26.72;40.09;94522.47;5011967;28;7725;-56
2023/04/03 14:22:23;;;;;;;;;;;;;;;26.72;40.37;94517.72;5016821;28;7100;-56
2023/04/03 14:24:51;;;;;;;;;;;;;;;26.74;39.85;94522.75;5026008;28;7361;-56
2023/04/03 14:27:19;;;;;;;;;;;;;;;26.74;40.13;94511.72;5023190;28;7035;-57
2023/04/03 14:29:48;;;;;;;;;;;;;;;26.73;40.28;94512.97;5019653;28;7212;-56
2023/04/03 14:32:18;;;;;;;;;;;;;;;26.71;40.26;94509.94;5020435;28;7297;-56